Time;durP1;ratioP1;P1;durP2;ratioP2;P2;SDS_P1;SDS_P2;PMS_P1;PMS_P2;Temp;Humidity;BMP_temperature;BMP_pressure;BME280_temperature;BME280_humidity;BME280_pressure;Samples;Min_cycle;Max_cycle;Signal;HPM_P1;HPM_P2
2022/12/08 00:00:16;;;;;;;39.13;19.53;;;7.30;99.90;;;7.15;68.33;94807.56;5076175;28;20946;-54
2022/12/08 00:02:43;;;;;;;37.73;19.47;;;7.30;99.90;;;7.13;68.07;94814.72;5079427;28;20955;-56
2022/12/08 00:10:44;;;;;;;39.53;19.70;;;7.20;99.90;;;7.03;68.89;94811.97;5079759;28;20539;-55
2022/12/08 00:13:11;;;;;;;39.47;20.80;;;7.10;99.90;;;7.00;68.82;94805.19;5079418;28;20554;-54
2022/12/08 00:15:39;;;;;;;46.97;21.40;;;7.10;99.90;;;6.97;68.88;94809.81;5076763;28;20794;-55
2022/12/08 00:18:06;;;;;;;33.60;20.17;;;7.10;99.90;;;6.95;68.59;94817.78;5083726;28;20534;-56
2022/12/08 00:20:33;;;;;;;40.13;20.30;;;7.10;99.90;;;6.94;68.46;94815.28;5077227;28;20485;-54
2022/12/08 00:23:03;;;;;;;37.03;19.43;;;7.00;99.90;;;6.92;68.72;94818.03;5078889;28;20451;-55
2022/12/08 00:25:31;;;;;;;40.13;20.03;;;7.00;99.90;;;6.92;69.29;94830.28;5076235;28;20837;-56
2022/12/08 00:27:58;;;;;;;37.50;19.33;;;7.00;99.90;;;6.90;69.18;94825.16;5073895;28;20486;-54
2022/12/08 00:30:25;;;;;;;36.03;19.37;;;7.00;99.90;;;6.89;69.43;94831.31;5083737;28;20489;-55
2022/12/08 00:32:52;;;;;;;35.40;19.67;;;7.00;99.90;;;6.87;69.64;94835.03;5079332;28;20458;-55
2022/12/08 00:35:20;;;;;;;35.23;19.63;;;7.00;99.90;;;6.87;69.61;94840.25;5077786;28;20493;-53
2022/12/08 00:37:47;;;;;;;35.87;19.50;;;7.00;99.90;;;6.86;69.94;94847.25;5081231;28;20458;-58
2022/12/08 00:40:17;;;;;;;38.93;20.03;;;7.00;99.90;;;6.86;69.33;94839.41;5077195;28;20555;-56
2022/12/08 00:42:44;;;;;;;37.07;19.53;;;7.00;99.90;;;6.87;69.48;94835.03;5081195;28;20450;-56
2022/12/08 00:45:12;;;;;;;33.97;17.03;;;7.00;99.90;;;6.87;69.27;94832.41;5074607;28;20481;-55
2022/12/08 00:47:39;;;;;;;36.97;19.80;;;7.00;99.90;;;6.87;70.21;94833.25;5072261;28;20471;-55
2022/12/08 00:50:08;;;;;;;35.53;19.07;;;7.00;99.90;;;6.90;69.86;94840.03;5078124;28;20512;-55
2022/12/08 00:52:35;;;;;;;32.60;18.33;;;7.00;99.90;;;6.92;69.59;94840.72;5076847;28;21030;-54
2022/12/08 00:55:03;;;;;;;35.03;19.20;;;7.00;99.90;;;6.94;69.50;94841.44;5077665;28;21027;-55
2022/12/08 00:57:32;;;;;;;39.63;19.10;;;7.00;99.90;;;6.95;69.64;94836.09;5079338;28;20465;-56
2022/12/08 00:59:59;;;;;;;42.50;22.97;;;7.10;99.90;;;6.97;70.09;94835.97;5078298;28;20475;-57
2022/12/08 01:02:26;;;;;;;45.77;22.60;;;7.10;99.90;;;6.98;69.73;94816.72;5073187;28;20536;-55
2022/12/08 01:04:54;;;;;;;38.03;19.90;;;7.10;99.90;;;6.97;69.96;94822.91;5071420;28;20556;-55
2022/12/08 01:07:21;;;;;;;38.30;19.30;;;7.10;99.90;;;7.00;70.32;94827.88;5079921;28;20465;-56
2022/12/08 01:09:48;;;;;;;33.87;18.13;;;7.10;99.90;;;7.02;70.17;94831.25;5076342;28;20866;-56
2022/12/08 01:12:15;;;;;;;35.10;19.50;;;7.10;99.90;;;7.02;70.03;94833.84;5074815;28;20454;-55
2022/12/08 01:14:44;;;;;;;36.47;19.37;;;7.10;99.90;;;7.04;70.03;94815.44;5080327;28;20530;-55
2022/12/08 01:17:11;;;;;;;33.00;18.37;;;7.10;99.90;;;7.05;70.37;94820.53;5083113;28;20874;-54
2022/12/08 01:19:39;;;;;;;33.80;17.60;;;7.20;99.90;;;7.07;69.98;94816.00;5079805;28;20505;-57
2022/12/08 01:22:06;;;;;;;34.83;19.97;;;7.20;99.90;;;7.06;70.14;94822.19;5075540;28;20460;-56
2022/12/08 01:24:33;;;;;;;32.83;17.50;;;7.20;99.90;;;7.04;69.83;94816.25;5076539;28;20820;-56
2022/12/08 01:27:00;;;;;;;39.03;18.87;;;7.20;99.90;;;7.01;69.51;94811.25;5084384;28;21121;-54
2022/12/08 01:29:28;;;;;;;37.03;18.83;;;7.10;99.90;;;6.99;69.74;94818.41;5085323;28;20508;-54
2022/12/08 01:31:56;;;;;;;67.73;25.40;;;7.10;99.90;;;6.97;69.74;94809.81;5081017;28;20457;-55
2022/12/08 01:34:23;;;;;;;67.20;30.10;;;7.10;99.90;;;6.98;70.37;94812.31;5082125;28;20474;-55
2022/12/08 01:36:51;;;;;;;40.73;22.57;;;7.10;99.90;;;7.00;69.54;94809.59;5076752;28;20458;-54
2022/12/08 01:39:19;;;;;;;44.27;22.30;;;7.10;99.90;;;7.02;70.09;94806.84;5080794;28;20471;-54
2022/12/08 01:41:46;;;;;;;36.20;18.87;;;7.10;99.90;;;7.02;69.93;94807.69;5082401;28;20465;-54
2022/12/08 01:44:54;;;;;;;39.83;19.70;;;7.10;99.90;;;6.98;70.21;94804.47;5079483;28;20482;-54
2022/12/08 01:47:25;;;;;;;35.83;19.47;;;7.10;99.90;;;7.00;69.73;94793.88;5083157;28;20491;-55
2022/12/08 01:49:52;;;;;;;35.57;18.60;;;7.10;99.90;;;7.00;70.26;94797.38;5078139;28;20493;-56
2022/12/08 01:52:23;;;;;;;38.17;19.47;;;7.10;99.90;;;7.03;70.22;94803.28;5079466;28;20454;-56
2022/12/08 01:54:53;;;;;;;32.50;16.63;;;7.10;99.90;;;7.02;70.02;94799.84;5080813;28;20481;-56
2022/12/08 01:57:22;;;;;;;25.20;14.27;;;7.10;99.90;;;6.99;70.16;94792.25;5082549;28;20546;-54
2022/12/08 01:59:52;;;;;;;34.13;14.87;;;7.10;99.90;;;6.98;70.18;94787.97;5083067;28;21002;-54
2022/12/08 02:02:20;;;;;;;28.53;17.13;;;7.10;99.90;;;6.94;69.67;94791.75;5074669;28;20945;-56
2022/12/08 02:04:48;;;;;;;28.80;15.07;;;7.00;99.90;;;6.92;69.95;94797.09;5080499;28;21051;-55
2022/12/08 02:07:15;;;;;;;29.20;16.77;;;7.00;99.90;;;6.91;70.40;94797.22;5073526;28;21001;-53
2022/12/08 02:09:43;;;;;;;30.37;15.93;;;7.00;99.90;;;6.90;70.30;94798.19;5082021;28;20531;-55
2022/12/08 02:12:10;;;;;;;42.00;17.73;;;7.00;99.90;;;6.90;69.96;94787.75;5081959;28;20539;-55
2022/12/08 02:14:37;;;;;;;32.77;16.27;;;7.00;99.90;;;6.89;69.74;94791.28;5080806;28;20522;-59
2022/12/08 02:17:09;;;;;;;28.00;16.63;;;7.00;99.90;;;6.86;69.87;94787.13;5080158;28;20441;-56
2022/12/08 02:20:13;;;;;;;30.97;18.10;;;7.00;99.90;;;6.82;70.06;94783.94;5079864;28;20466;-55
2022/12/08 02:22:44;;;;;;;25.67;16.27;;;6.90;99.90;;;6.79;70.51;94778.94;5082221;28;20453;-55
2022/12/08 02:25:16;;;;;;;34.23;17.20;;;6.90;99.90;;;6.78;70.47;94774.66;5078629;28;20474;-53
2022/12/08 02:27:46;;;;;;;30.60;16.73;;;6.90;99.90;;;6.76;70.13;94787.00;5075361;28;20447;-54
2022/12/08 02:30:22;;;;;;;32.67;17.10;;;6.90;99.90;;;6.72;69.67;94782.97;5078669;28;20495;-55
2022/12/08 02:33:26;;;;;;;28.57;16.80;;;6.80;99.90;;;6.69;70.46;94790.22;5071860;28;20443;-56
2022/12/08 02:36:07;;;;;;;34.80;15.70;;;6.80;99.90;;;6.67;70.18;94792.94;5074984;28;20474;-56
2022/12/08 02:38:47;;;;;;;38.90;18.83;;;6.80;99.90;;;6.67;70.60;94798.19;5082272;28;20445;-56
2022/12/08 02:41:24;;;;;;;32.83;18.40;;;6.80;99.90;;;6.65;70.15;94794.84;5081226;28;20897;-55
2022/12/08 02:43:57;;;;;;;33.83;18.20;;;6.80;99.90;;;6.66;70.04;94787.84;5076985;28;20466;-57
2022/12/08 02:46:28;;;;;;;33.47;17.97;;;6.80;99.90;;;6.65;70.60;94789.63;5081572;28;20496;-57
2022/12/08 02:48:56;;;;;;;28.10;15.47;;;6.80;99.90;;;6.64;70.55;94787.97;5076341;28;20973;-55
2022/12/08 02:51:24;;;;;;;35.17;18.27;;;6.80;99.90;;;6.62;70.15;94780.25;5079557;28;20500;-55
2022/12/08 02:53:51;;;;;;;36.27;18.40;;;6.70;99.90;;;6.62;70.53;94782.84;5079795;28;20455;-54
2022/12/08 02:56:36;;;;;;;68.13;26.30;;;6.70;99.90;;;6.62;70.62;94776.81;5082959;28;20465;-54
2022/12/08 02:59:17;;;;;;;63.83;27.60;;;6.70;99.90;;;6.61;69.90;94773.34;5075062;28;20547;-55
2022/12/08 03:02:17;;;;;;;54.80;23.47;;;6.70;99.90;;;6.60;69.85;94776.91;5076140;28;20959;-57
2022/12/08 03:04:47;;;;;;;37.07;19.03;;;6.70;99.90;;;6.60;70.42;94781.28;5081011;28;20560;-55
2022/12/08 03:07:22;;;;;;;40.17;20.87;;;6.70;99.90;;;6.57;70.27;94781.56;5077969;28;21000;-54
2022/12/08 03:09:52;;;;;;;50.27;19.83;;;6.70;99.90;;;6.57;69.83;94781.56;5078662;28;20577;-56
2022/12/08 03:12:23;;;;;;;41.50;20.23;;;6.70;99.90;;;6.56;70.38;94778.09;5073463;28;20894;-54
2022/12/08 03:14:52;;;;;;;39.00;19.00;;;6.70;99.90;;;6.52;70.24;94774.06;5074123;28;20478;-54
2022/12/08 03:17:21;;;;;;;30.47;17.30;;;6.70;99.90;;;6.51;69.82;94774.19;5078368;28;20450;-54
2022/12/08 03:19:48;;;;;;;32.33;17.80;;;6.60;99.90;;;6.51;70.22;94776.81;5078621;28;20470;-56
2022/12/08 03:22:19;;;;;;;34.40;19.60;;;6.60;99.90;;;6.49;70.44;94769.09;5081872;28;20453;-56
2022/12/08 03:24:47;;;;;;;37.03;18.03;;;6.60;99.90;;;6.47;70.02;94781.41;5078078;28;20475;-57
2022/12/08 03:27:15;;;;;;;49.77;19.87;;;6.60;99.90;;;6.45;70.14;94776.31;5081520;28;20450;-55
2022/12/08 03:29:42;;;;;;;35.40;17.70;;;6.60;99.90;;;6.44;70.52;94779.88;5077679;28;20497;-55
2022/12/08 03:32:14;;;;;;;33.53;19.10;;;6.60;99.90;;;6.43;69.91;94786.03;5081835;28;20442;-57
2022/12/08 03:34:44;;;;;;;41.67;22.60;;;6.60;99.90;;;6.42;70.53;94786.16;5080336;28;20474;-56
2022/12/08 03:37:11;;;;;;;38.33;22.17;;;6.50;99.90;;;6.39;70.67;94784.59;5074867;28;20451;-58
2022/12/08 03:39:40;;;;;;;47.77;20.40;;;6.50;99.90;;;6.39;69.76;94783.78;5076561;28;20482;-55
2022/12/08 03:42:07;;;;;;;43.03;21.43;;;6.60;99.90;;;6.37;69.82;94783.06;5075263;28;20458;-56
2022/12/08 03:44:34;;;;;;;44.07;20.37;;;6.50;99.90;;;6.36;70.42;94787.44;5076842;28;20561;-57
2022/12/08 03:47:02;;;;;;;40.00;20.10;;;6.50;99.90;;;6.37;70.44;94796.13;5078626;28;20815;-54
2022/12/08 03:49:29;;;;;;;38.03;21.27;;;6.50;99.90;;;6.36;70.52;94784.00;5073335;28;20482;-55
2022/12/08 03:51:56;;;;;;;36.43;19.37;;;6.50;99.90;;;6.36;70.31;94786.63;5084365;28;20454;-56
2022/12/08 03:54:24;;;;;;;39.20;19.83;;;6.50;99.90;;;6.37;70.20;94785.69;5079597;28;20567;-55
2022/12/08 03:56:52;;;;;;;34.77;19.20;;;6.50;99.90;;;6.36;70.18;94779.63;5078617;28;20924;-58
2022/12/08 03:59:19;;;;;;;37.23;21.00;;;6.50;99.90;;;6.36;70.00;94784.84;5079119;28;20477;-53
2022/12/08 04:01:47;;;;;;;36.50;18.10;;;6.50;99.90;;;6.36;69.54;94790.06;5078666;28;21017;-55
2022/12/08 04:04:14;;;;;;;34.10;19.00;;;6.50;99.90;;;6.36;69.85;94792.66;5079291;28;20474;-56
2022/12/08 04:06:41;;;;;;;36.83;18.60;;;6.50;99.90;;;6.37;70.16;94794.34;5081280;28;20454;-56
2022/12/08 04:09:08;;;;;;;32.10;18.30;;;6.50;99.90;;;6.36;69.47;94800.50;5079981;28;20566;-55
2022/12/08 04:11:36;;;;;;;35.73;20.37;;;6.50;99.90;;;6.36;70.20;94799.69;5071661;28;20497;-55
2022/12/08 04:14:04;;;;;;;48.53;22.13;;;6.50;99.90;;;6.35;69.59;94792.78;5077489;28;20446;-56
2022/12/08 04:16:32;;;;;;;65.40;26.57;;;6.50;99.90;;;6.36;70.05;94789.25;5073035;28;20532;-56
2022/12/08 04:18:59;;;;;;;68.43;29.90;;;6.50;99.90;;;6.33;70.26;94777.22;5073191;28;20523;-56
2022/12/08 04:21:27;;;;;;;57.60;22.57;;;6.50;99.90;;;6.33;70.02;94786.84;5075438;28;20552;-55
2022/12/08 04:23:54;;;;;;;41.60;20.03;;;6.50;99.90;;;6.31;69.82;94794.81;5072941;28;20519;-54
2022/12/08 04:26:22;;;;;;;44.03;21.60;;;6.40;99.90;;;6.31;70.33;94797.41;5069719;28;20455;-55
2022/12/08 04:28:49;;;;;;;40.70;20.67;;;6.50;99.90;;;6.32;70.15;94801.72;5076318;28;20454;-56
2022/12/08 04:31:18;;;;;;;37.87;19.50;;;6.50;99.90;;;6.35;69.98;94809.31;5068310;28;20490;-55
2022/12/08 04:33:45;;;;;;;39.63;20.40;;;6.50;99.90;;;6.37;70.67;94804.78;5080051;28;20465;-56
2022/12/08 04:36:12;;;;;;;36.37;19.43;;;6.50;99.90;;;6.40;69.75;94799.34;5076263;28;20842;-55
2022/12/08 04:38:39;;;;;;;36.57;19.60;;;6.50;99.90;;;6.42;70.08;94796.63;5082627;28;20842;-54
2022/12/08 04:41:07;;;;;;;35.50;19.73;;;6.50;99.90;;;6.42;69.66;94802.66;5074186;28;20592;-54
2022/12/08 04:43:35;;;;;;;35.73;18.53;;;6.60;99.90;;;6.38;69.62;94800.41;5079211;28;20450;-56
2022/12/08 04:46:05;;;;;;;34.23;18.83;;;6.50;99.90;;;6.36;69.85;94805.75;5075594;28;20843;-54
2022/12/08 04:48:34;;;;;;;32.87;18.53;;;6.50;99.90;;;6.35;69.87;94798.00;5077192;28;20462;-57
2022/12/08 04:51:01;;;;;;;36.13;19.17;;;6.50;99.90;;;6.34;69.95;94794.59;5076427;28;20923;-55
2022/12/08 04:53:28;;;;;;;38.40;19.50;;;6.50;99.90;;;6.31;69.98;94801.81;5082954;28;20454;-55
2022/12/08 04:55:56;;;;;;;39.07;19.57;;;6.50;99.90;;;6.29;70.31;94796.72;5080174;28;20562;-55
2022/12/08 04:58:23;;;;;;;40.67;19.03;;;6.40;99.90;;;6.30;70.65;94814.03;5079744;28;20457;-55
2022/12/08 05:00:50;;;;;;;32.83;19.93;;;6.40;99.90;;;6.31;70.54;94818.31;5083762;28;20474;-57
2022/12/08 05:03:18;;;;;;;34.17;18.83;;;6.40;99.90;;;6.31;70.40;94818.31;5074328;28;20458;-57
2022/12/08 05:05:46;;;;;;;31.60;20.57;;;6.50;99.90;;;6.30;70.28;94819.25;5078659;28;20488;-56
2022/12/08 05:08:14;;;;;;;41.80;20.53;;;6.50;99.90;;;6.30;69.99;94821.88;5073984;28;20462;-56
2022/12/08 05:10:41;;;;;;;45.27;21.67;;;6.40;99.90;;;6.30;70.18;94819.25;5086153;28;20982;-55
2022/12/08 05:13:09;;;;;;;33.73;19.23;;;6.40;99.90;;;6.30;70.51;94827.09;5081918;28;20453;-56
2022/12/08 05:15:36;;;;;;;35.93;19.80;;;6.40;99.90;;;6.28;70.24;94823.78;5074901;28;20892;-55
2022/12/08 05:18:05;;;;;;;34.00;19.83;;;6.40;99.90;;;6.27;70.26;94829.94;5075319;28;20533;-56
2022/12/08 05:20:32;;;;;;;40.50;19.60;;;6.40;99.90;;;6.23;70.24;94821.50;5075574;28;20469;-57
2022/12/08 05:23:01;;;;;;;37.40;20.23;;;6.40;99.90;;;6.21;70.41;94817.34;5075263;28;20469;-56
2022/12/08 05:25:28;;;;;;;40.30;22.27;;;6.30;99.90;;;6.17;70.95;94834.19;5075729;28;20478;-55
2022/12/08 05:27:55;;;;;;;32.40;18.97;;;6.30;99.90;;;6.10;70.66;94834.66;5075992;28;20677;-57
2022/12/08 05:30:23;;;;;;;33.73;20.90;;;6.30;99.90;;;6.09;70.87;94840.81;5078963;28;20541;-56
2022/12/08 05:32:50;;;;;;;37.70;19.70;;;6.20;99.90;;;6.08;70.88;94839.13;5079001;28;20556;-56
2022/12/08 05:35:18;;;;;;;33.77;19.00;;;6.20;99.90;;;6.08;70.68;94833.91;5075807;28;20479;-58
2022/12/08 05:37:45;;;;;;;35.80;19.67;;;6.20;99.90;;;6.07;71.15;94827.03;5077886;28;20449;-57
2022/12/08 05:40:14;;;;;;;35.63;21.07;;;6.20;99.90;;;6.06;70.87;94830.59;5073917;28;20475;-58
2022/12/08 05:42:41;;;;;;;36.60;21.07;;;6.20;99.90;;;6.05;70.92;94841.16;5080595;28;20480;-55
2022/12/08 05:45:10;;;;;;;34.70;20.60;;;6.20;99.90;;;6.02;71.21;94844.81;5072224;28;20475;-57
2022/12/08 05:47:37;;;;;;;39.10;20.57;;;6.20;99.90;;;6.01;71.30;94837.94;5075286;28;20446;-56
2022/12/08 05:50:07;;;;;;;46.87;21.80;;;6.20;99.90;;;6.00;70.98;94843.28;5077146;28;21021;-57
2022/12/08 05:52:34;;;;;;;39.30;21.17;;;6.20;99.90;;;5.98;70.72;94838.16;5079599;28;20455;-57
2022/12/08 05:55:01;;;;;;;36.60;20.87;;;6.20;99.90;;;5.94;70.94;94841.91;5082793;28;20837;-57
2022/12/08 05:57:30;;;;;;;50.40;23.43;;;6.10;99.90;;;5.91;71.27;94840.34;5082775;28;20454;-58
2022/12/08 05:59:58;;;;;;;53.83;21.73;;;6.10;99.90;;;5.91;71.61;94857.78;5082595;28;20989;-57
2022/12/08 06:02:25;;;;;;;41.63;19.60;;;6.10;99.90;;;5.91;71.03;94866.44;5079892;28;20471;-56
2022/12/08 06:04:53;;;;;;;45.93;21.73;;;6.10;99.90;;;5.89;71.52;94855.28;5080928;28;20894;-57
2022/12/08 06:07:20;;;;;;;58.97;21.87;;;6.10;99.90;;;5.90;71.11;94862.19;5080788;28;20455;-56
2022/12/08 06:09:47;;;;;;;35.20;21.20;;;6.10;99.90;;;5.90;71.38;94856.97;5074290;28;20470;-54
2022/12/08 06:12:15;;;;;;;46.23;22.97;;;6.10;99.90;;;5.93;71.35;94861.09;5079935;28;20539;-55
2022/12/08 06:14:43;;;;;;;57.87;26.80;;;6.10;99.90;;;5.96;71.30;94868.72;5083400;28;20482;-56
2022/12/08 06:17:11;;;;;;;94.13;34.67;;;6.10;99.90;;;5.99;71.26;94852.03;5080598;28;20644;-57
2022/12/08 06:19:38;;;;;;;62.83;27.70;;;6.10;99.90;;;6.17;72.03;94853.28;5080749;28;20473;-53
2022/12/08 06:22:05;;;;;;;46.73;22.67;;;6.30;99.90;;;6.54;71.19;94862.78;5080584;28;20446;-57
2022/12/08 06:24:33;;;;;;;39.23;22.30;;;6.60;99.90;;;6.94;70.29;94851.88;5081136;28;20535;-57
2022/12/08 06:27:00;;;;;;;47.03;24.03;;;7.00;99.90;;;7.36;69.14;94873.06;5081179;28;20519;-57
2022/12/08 06:29:28;;;;;;;39.67;21.73;;;7.40;99.90;;;7.71;68.81;94864.19;5082896;28;20486;-56
2022/12/08 06:31:56;;;;;;;38.93;20.97;;;7.80;99.90;;;8.02;67.28;94874.84;5079042;28;21091;-56
2022/12/08 06:34:23;;;;;;;34.80;21.43;;;8.10;99.90;;;8.09;66.75;94865.53;5079615;28;20950;-58
2022/12/08 06:36:51;;;;;;;39.87;20.90;;;8.20;99.90;;;8.02;66.74;94859.13;5080645;28;21040;-55
2022/12/08 06:39:18;;;;;;;34.80;20.60;;;8.10;99.90;;;7.95;67.38;94857.94;5075385;28;20542;-56
2022/12/08 06:44:30;;;;;;;43.73;20.63;;;8.00;99.90;;;7.85;67.75;94848.25;5072017;28;20464;-57
2022/12/08 06:46:59;;;;;;;46.70;20.60;;;8.00;99.90;;;7.97;67.34;94856.88;5078345;28;20866;-57
2022/12/08 06:49:26;;;;;;;37.47;22.20;;;8.10;99.90;;;8.05;67.52;94864.94;5073750;28;20932;-57
2022/12/08 06:51:53;;;;;;;63.67;28.97;;;8.20;99.90;;;8.05;67.47;94853.63;5082328;28;20971;-55
2022/12/08 06:54:20;;;;;;;119.60;42.40;;;8.20;99.90;;;8.01;66.96;94852.22;5074739;28;20471;-56
2022/12/08 06:56:48;;;;;;;50.33;25.17;;;8.20;99.90;;;7.96;67.53;94870.09;5076580;28;20450;-57
2022/12/08 06:59:16;;;;;;;43.87;23.70;;;8.10;99.90;;;7.89;67.85;94875.00;5076126;28;20471;-58
2022/12/08 07:01:43;;;;;;;56.03;20.33;;;8.00;99.90;;;7.87;69.37;94866.44;5072729;28;20451;-57
2022/12/08 07:04:12;;;;;;;35.67;19.53;;;8.00;99.90;;;7.90;69.40;94874.88;5076484;28;20532;-56
2022/12/08 07:06:40;;;;;;;45.23;24.57;;;8.00;99.90;;;7.96;69.16;94881.38;5076034;28;20962;-57
2022/12/08 07:09:07;;;;;;;44.37;25.27;;;8.00;99.90;;;8.12;68.43;94885.38;5071643;28;21283;-55
2022/12/08 07:11:35;;;;;;;47.03;24.37;;;8.20;99.90;;;8.74;68.08;94886.47;5073697;28;20544;-58
2022/12/08 07:14:02;;;;;;;40.27;23.80;;;8.70;99.90;;;9.69;66.67;94890.63;5080244;28;20541;-55
2022/12/08 07:16:30;;;;;;;46.63;24.23;;;9.60;99.90;;;10.69;64.48;94888.81;5071540;28;20459;-53
2022/12/08 07:18:57;;;;;;;44.80;25.60;;;10.60;99.90;;;11.64;62.68;94887.84;5079690;28;20547;-59
2022/12/08 07:21:26;;;;;;;45.20;24.57;;;11.70;99.90;;;12.52;60.86;94897.88;5070961;28;20516;-56
2022/12/08 07:23:53;;;;;;;40.27;23.57;;;12.60;98.90;;;13.32;59.07;94891.69;5080689;28;20453;-54
2022/12/08 07:26:20;;;;;;;47.60;23.40;;;13.40;97.80;;;14.04;57.00;94887.94;5070653;28;20457;-56
2022/12/08 07:28:48;;;;;;;42.00;22.73;;;14.20;96.00;;;14.73;56.02;94893.88;5080925;28;20657;-56
2022/12/08 07:31:19;;;;;;;35.23;21.10;;;14.90;95.10;;;15.40;53.78;94880.41;5071531;28;20555;-58
2022/12/08 07:33:46;;;;;;;33.63;19.43;;;15.70;92.90;;;16.06;52.56;94885.50;5075725;28;20464;-57
2022/12/08 07:36:14;;;;;;;33.90;18.40;;;16.40;91.60;;;16.67;51.20;94887.47;5070080;28;20446;-57
2022/12/08 07:38:43;;;;;;;37.77;16.63;;;16.90;90.40;;;17.26;50.62;94883.34;5078692;28;20482;-56
2022/12/08 07:41:13;;;;;;;29.27;18.43;;;17.50;88.90;;;17.81;49.86;94890.09;5072038;28;20443;-55
2022/12/08 07:43:40;;;;;;;31.13;18.03;;;17.90;87.90;;;18.27;47.91;94875.75;5073550;28;20462;-58
2022/12/08 07:46:08;;;;;;;28.60;17.13;;;18.20;83.60;;;18.66;48.60;94882.53;5069858;28;21027;-57
2022/12/08 07:48:35;;;;;;;33.70;18.47;;;18.60;83.80;;;18.83;47.10;94880.44;5072237;28;20569;-55
2022/12/08 07:51:03;;;;;;;33.27;20.43;;;18.70;80.60;;;18.76;47.10;94887.53;5077048;28;20490;-58
2022/12/08 07:53:30;;;;;;;34.57;19.07;;;18.70;78.30;;;18.57;46.65;94887.13;5080637;28;20457;-57
2022/12/08 07:55:59;;;;;;;33.30;19.47;;;18.60;75.70;;;18.60;46.93;94889.41;5077380;28;20474;-56
2022/12/08 07:58:27;;;;;;;39.27;18.60;;;18.60;76.70;;;18.77;44.38;94881.19;5077533;28;20530;-57
2022/12/08 08:00:54;;;;;;;33.80;18.87;;;18.70;71.40;;;18.84;45.61;94874.09;5078257;28;20548;-55
2022/12/08 08:03:21;;;;;;;32.83;18.60;;;18.60;74.30;;;18.62;45.56;94882.09;5079315;28;20461;-56
2022/12/08 08:05:49;;;;;;;34.57;19.50;;;18.50;73.40;;;18.24;46.29;94879.59;5074544;28;20568;-55
2022/12/08 08:08:16;;;;;;;80.50;19.17;;;18.30;72.70;;;18.01;45.96;94882.41;5078887;28;20450;-57
2022/12/08 08:10:43;;;;;;;29.00;16.50;;;18.10;73.00;;;17.93;46.37;94869.19;5078403;28;20469;-57
2022/12/08 08:13:12;;;;;;;31.67;16.43;;;17.90;73.80;;;17.81;46.96;94879.44;5079551;28;20559;-54
2022/12/08 08:15:40;;;;;;;23.90;15.90;;;17.80;73.80;;;17.47;46.50;94877.34;5078593;28;20469;-54
2022/12/08 08:18:07;;;;;;;31.40;16.80;;;17.50;73.30;;;17.00;47.26;94876.63;5078587;28;20456;-57
2022/12/08 08:20:35;;;;;;;28.67;16.73;;;17.10;72.80;;;16.54;47.88;94889.88;5079173;28;20470;-57
2022/12/08 08:23:02;;;;;;;33.00;19.90;;;16.70;74.20;;;16.10;48.26;94892.13;5078802;28;20544;-56
2022/12/08 08:25:29;;;;;;;37.17;17.97;;;16.30;74.00;;;15.73;48.82;94890.91;5083750;28;20929;-56
2022/12/08 08:27:57;;;;;;;33.50;16.23;;;15.90;75.40;;;15.36;48.65;94873.78;5082714;28;20453;-57
2022/12/08 08:30:25;;;;;;;25.23;15.37;;;15.50;74.30;;;14.90;49.30;94886.75;5084161;28;20512;-57
2022/12/08 08:32:53;;;;;;;30.67;17.90;;;15.10;75.30;;;14.48;50.24;94879.75;5081490;28;20981;-56
2022/12/08 08:35:20;;;;;;;36.00;19.00;;;14.70;76.80;;;14.11;50.61;94887.16;5084374;28;20504;-57
2022/12/08 08:37:47;;;;;;;38.47;18.43;;;14.20;77.30;;;13.77;51.53;94877.44;5085181;28;20882;-57
2022/12/08 08:40:15;;;;;;;39.37;20.97;;;13.90;79.70;;;13.50;52.09;94882.94;5083783;28;20884;-56
2022/12/08 08:42:42;;;;;;;37.70;19.93;;;13.60;80.50;;;13.20;52.64;94875.31;5081990;28;20470;-57
2022/12/08 08:45:10;;;;;;;43.97;20.67;;;13.30;81.80;;;12.94;53.54;94874.47;5082967;28;20833;-55
2022/12/08 08:47:39;;;;;;;42.80;22.30;;;13.10;83.10;;;12.68;53.52;94886.63;5081130;28;20453;-57
2022/12/08 08:50:07;;;;;;;41.17;21.47;;;12.80;83.70;;;12.45;54.01;94883.63;5078414;28;20470;-57
2022/12/08 08:52:35;;;;;;;37.47;20.10;;;12.60;85.40;;;12.32;54.38;94885.84;5080697;28;20879;-56
2022/12/08 08:55:02;;;;;;;41.67;21.93;;;12.40;86.00;;;12.25;54.76;94884.75;5083592;28;20551;-55
2022/12/08 08:57:30;;;;;;;38.50;22.00;;;12.30;87.60;;;12.22;54.43;94885.06;5077125;28;20447;-58
2022/12/08 08:59:57;;;;;;;43.33;25.37;;;12.20;87.30;;;12.17;54.05;94882.88;5083735;28;20466;-56
2022/12/08 09:02:24;;;;;;;57.93;25.67;;;12.10;87.20;;;12.06;54.62;94870.72;5077181;28;20453;-57
2022/12/08 09:04:53;;;;;;;47.80;25.70;;;12.10;88.50;;;11.91;54.83;94872.19;5084802;28;20476;-56
2022/12/08 09:07:20;;;;;;;47.17;25.13;;;11.90;88.60;;;11.73;55.49;94869.53;5080873;28;20453;-57
2022/12/08 09:09:48;;;;;;;40.47;23.73;;;11.80;89.90;;;11.63;55.99;94873.03;5081017;28;20470;-57
2022/12/08 09:12:15;;;;;;;53.10;26.07;;;11.70;90.30;;;11.62;55.87;94868.75;5080808;28;21013;-56
2022/12/08 09:14:42;;;;;;;53.97;27.83;;;11.60;90.70;;;11.64;56.03;94869.41;5085701;28;20488;-57
2022/12/08 09:17:10;;;;;;;69.10;25.17;;;11.60;90.90;;;11.64;55.97;94864.16;5080760;28;20450;-54
2022/12/08 09:19:37;;;;;;;42.43;23.93;;;11.60;91.10;;;11.68;55.97;94867.34;5082967;28;20535;-57
2022/12/08 09:22:06;;;;;;;58.20;24.20;;;11.60;91.20;;;11.71;56.07;94872.31;5077388;28;20485;-55
2022/12/08 09:24:33;;;;;;;43.80;24.13;;;11.70;91.40;;;11.81;56.04;94866.97;5083312;28;20470;-57
2022/12/08 09:27:00;;;;;;;56.47;23.23;;;11.80;91.60;;;12.13;55.74;94866.53;5081409;28;20818;-58
2022/12/08 09:29:28;;;;;;;38.33;22.20;;;12.00;91.80;;;12.68;55.42;94860.25;5084198;28;20482;-57
2022/12/08 09:31:56;;;;;;;44.10;24.60;;;12.50;91.70;;;13.33;54.24;94848.50;5081509;28;20485;-56
2022/12/08 09:34:23;;;;;;;37.70;20.70;;;13.00;91.20;;;14.02;53.35;94853.72;5083009;28;20557;-57
2022/12/08 09:36:50;;;;;;;48.00;23.90;;;13.70;90.60;;;14.73;52.04;94851.50;5080501;28;20450;-57
2022/12/08 09:39:19;;;;;;;45.37;22.87;;;14.30;89.50;;;15.34;51.25;94845.81;5079654;28;20463;-60
2022/12/08 09:41:49;;;;;;;40.33;23.07;;;14.90;88.00;;;15.87;49.64;94848.81;5082756;28;20454;-55
2022/12/08 09:44:38;;;;;;;40.97;23.13;;;15.40;85.50;;;16.28;48.56;94849.41;5082281;28;20712;-56
2022/12/08 09:47:16;;;;;;;47.40;22.40;;;15.90;83.60;;;16.65;48.32;94836.34;5079742;28;20926;-57
2022/12/08 09:49:46;;;;;;;36.97;21.30;;;16.30;81.60;;;17.01;47.77;94822.50;5077761;28;21091;-57
2022/12/08 09:52:18;;;;;;;43.23;23.80;;;16.70;79.90;;;17.19;47.29;94819.47;5081291;28;20478;-55
2022/12/08 09:54:47;;;;;;;46.57;24.67;;;16.90;77.80;;;17.28;47.04;94820.22;5083671;28;20462;-55
2022/12/08 09:57:17;;;;;;;55.33;25.00;;;17.00;76.60;;;17.25;46.08;94812.59;5075350;28;20458;-54
2022/12/08 09:59:48;;;;;;;46.43;22.90;;;17.00;74.70;;;17.11;46.30;94816.91;5080611;28;20465;-56
2022/12/08 10:02:21;;;;;;;28.77;19.40;;;17.00;74.20;;;16.82;45.78;94803.38;5079452;28;20891;-57
2022/12/08 10:04:49;;;;;;;42.77;20.00;;;16.70;72.90;;;16.53;45.95;94804.09;5083233;28;20466;-57
2022/12/08 10:07:18;;;;;;;36.83;20.60;;;16.60;72.40;;;16.64;46.80;94800.19;5078136;28;20459;-57
2022/12/08 10:09:52;;;;;;;39.83;19.60;;;16.60;74.10;;;17.11;46.30;94803.63;5083138;28;20466;-58
2022/12/08 10:12:22;;;;;;;41.43;20.20;;;16.90;74.90;;;17.66;46.34;94801.50;5078599;28;20470;-57
2022/12/08 10:14:54;;;;;;;36.37;19.23;;;17.30;74.30;;;18.27;45.21;94802.03;5078803;28;20565;-54
2022/12/08 10:17:24;;;;;;;32.63;18.87;;;17.90;73.70;;;18.90;44.24;94800.56;5079721;28;20450;-56
2022/12/08 10:19:55;;;;;;;45.67;20.23;;;18.40;71.60;;;19.25;41.63;94796.09;5078941;28;20478;-57
2022/12/08 10:22:24;;;;;;;46.57;18.87;;;18.80;66.50;;;19.57;41.98;94788.50;5081986;28;20986;-57
2022/12/08 10:24:59;;;;;;;36.20;17.73;;;19.20;66.70;;;19.81;42.43;94791.69;5079229;28;20883;-55
2022/12/08 10:27:26;;;;;;;35.50;17.93;;;19.50;66.20;;;19.94;41.78;94782.91;5082283;28;20469;-56
2022/12/08 10:29:53;;;;;;;36.30;17.27;;;19.60;64.50;;;20.09;41.42;94777.44;5079907;28;20484;-58